Time;durP1;ratioP1;P1;durP2;ratioP2;P2;SDS_P1;SDS_P2;PMS_P1;PMS_P2;Temp;Humidity;BMP_temperature;BMP_pressure;BME280_temperature;BME280_humidity;BME280_pressure;Samples;Min_cycle;Max_cycle;Signal;HPM_P1;HPM_P2
2022/04/15 00:00:14;;;;;;;12.13;7.13;;;10.00;99.90;;;;;;5072219;28;20060;-60
2022/04/15 00:02:44;;;;;;;19.25;7.30;;;10.00;99.90;;;;;;5060930;28;20049;-60
2022/04/15 00:05:34;;;;;;;10.18;6.95;;;10.00;99.90;;;;;;5054183;28;20052;-62
2022/04/15 00:07:59;;;;;;;12.43;7.10;;;10.00;99.90;;;;;;5070844;28;20053;-61
2022/04/15 00:10:30;;;;;;;11.50;7.07;;;10.10;99.90;;;;;;5073148;28;20052;-61
2022/04/15 00:12:57;;;;;;;16.27;7.82;;;10.10;99.90;;;;;;5072041;28;20045;-62
2022/04/15 00:15:27;;;;;;;12.10;7.30;;;10.10;99.90;;;;;;5073141;28;20052;-61
2022/04/15 00:17:55;;;;;;;14.55;7.03;;;10.10;99.90;;;;;;5072886;28;20049;-61
2022/04/15 00:20:24;;;;;;;14.88;7.20;;;10.10;99.90;;;;;;5063973;28;20044;-60
2022/04/15 00:22:52;;;;;;;11.65;6.45;;;10.20;99.90;;;;;;5065256;28;20411;-61
2022/04/15 00:25:21;;;;;;;16.27;7.07;;;10.20;99.90;;;;;;5071895;28;20045;-61
2022/04/15 00:27:53;;;;;;;13.43;7.43;;;10.10;99.90;;;;;;5072867;28;20067;-61
2022/04/15 00:30:21;;;;;;;16.05;7.43;;;10.10;99.90;;;;;;5072472;28;20044;-61
2022/04/15 00:32:49;;;;;;;16.20;7.65;;;10.10;99.90;;;;;;5072831;28;20040;-61
2022/04/15 00:35:18;;;;;;;11.73;7.80;;;10.10;99.90;;;;;;5061442;28;20045;-61
2022/04/15 00:37:47;;;;;;;11.73;6.97;;;10.00;99.90;;;;;;5063694;28;20175;-62
2022/04/15 00:40:15;;;;;;;12.77;6.70;;;9.90;99.90;;;;;;5050677;28;20056;-62
2022/04/15 00:42:42;;;;;;;13.38;7.07;;;9.90;99.90;;;;;;5051387;28;20064;-61
2022/04/15 00:45:10;;;;;;;13.73;6.95;;;9.80;99.90;;;;;;5051441;28;20045;-61
2022/04/15 00:47:48;;;;;;;16.38;7.53;;;9.70;99.90;;;;;;5053229;28;20068;-61
2022/04/15 00:50:16;;;;;;;14.38;7.55;;;9.60;99.90;;;;;;5072592;28;20037;-61
2022/04/15 00:52:46;;;;;;;12.32;6.82;;;9.60;99.90;;;;;;5070562;28;20558;-61
2022/04/15 00:55:15;;;;;;;20.60;7.70;;;9.50;99.90;;;;;;5051083;28;20056;-61
2022/04/15 00:57:50;;;;;;;17.88;8.50;;;9.50;99.90;;;;;;5052731;28;20520;-61
2022/04/15 01:00:19;;;;;;;15.13;7.90;;;9.40;99.90;;;;;;5072415;28;20408;-62
2022/04/15 01:02:47;;;;;;;14.40;8.15;;;9.30;99.90;;;;;;5070051;28;20040;-62
2022/04/15 01:05:16;;;;;;;10.60;7.30;;;9.30;99.90;;;;;;5068357;28;20045;-62
2022/04/15 01:07:49;;;;;;;13.38;7.40;;;9.30;99.90;;;;;;5062485;28;20049;-62
2022/04/15 01:10:18;;;;;;;17.75;7.35;;;9.20;99.90;;;;;;5072137;28;20048;-63
2022/04/15 01:12:53;;;;;;;14.65;8.40;;;9.20;99.90;;;;;;5069719;28;20048;-65
2022/04/15 01:15:41;;;;;;;13.82;7.72;;;9.20;99.90;;;;;;5072580;28;20396;-62
2022/04/15 01:18:09;;;;;;;17.98;8.30;;;9.10;99.90;;;;;;5072017;28;20491;-62
2022/04/15 01:20:39;;;;;;;13.88;8.35;;;9.10;99.90;;;;;;5071036;28;20044;-62
2022/04/15 01:23:08;;;;;;;16.33;8.40;;;9.00;99.90;;;;;;5059871;28;20377;-63
2022/04/15 01:25:36;;;;;;;16.50;8.57;;;9.00;99.90;;;;;;5050482;28;20045;-66
2022/04/15 01:28:04;;;;;;;20.30;9.18;;;8.90;99.90;;;;;;5055854;28;20048;-67
2022/04/15 01:30:32;;;;;;;16.23;8.45;;;8.90;99.90;;;;;;5066509;28;20045;-63
2022/04/15 01:33:00;;;;;;;14.75;7.93;;;8.80;99.90;;;;;;5068604;28;20053;-65
2022/04/15 01:35:33;;;;;;;17.60;8.60;;;8.80;99.90;;;;;;5053315;28;20052;-61
2022/04/15 01:38:04;;;;;;;16.13;8.05;;;8.80;99.90;;;;;;5041662;28;20040;-62
2022/04/15 01:40:32;;;;;;;17.67;8.30;;;8.80;99.90;;;;;;5052079;28;20052;-62
2022/04/15 01:43:00;;;;;;;12.88;8.65;;;8.70;99.90;;;;;;5053223;28;20049;-60
2022/04/15 01:45:28;;;;;;;12.75;8.70;;;8.60;99.90;;;;;;5063669;28;20081;-63
2022/04/15 01:47:56;;;;;;;17.88;8.25;;;8.60;99.90;;;;;;5073257;28;20419;-61
2022/04/15 01:50:24;;;;;;;13.68;8.27;;;8.60;99.90;;;;;;5073070;28;20059;-62
2022/04/15 01:52:52;;;;;;;16.08;7.95;;;8.60;99.90;;;;;;5073159;28;20045;-61
2022/04/15 01:55:19;;;;;;;18.35;8.57;;;8.60;99.90;;;;;;5057643;28;20049;-61
2022/04/15 01:57:47;;;;;;;16.17;7.30;;;8.50;99.90;;;;;;5052534;28;20862;-61
2022/04/15 02:00:15;;;;;;;18.35;7.88;;;8.50;99.90;;;;;;5052863;28;20064;-62
2022/04/15 02:02:43;;;;;;;17.30;8.30;;;8.40;99.90;;;;;;5051499;28;20041;-61
2022/04/15 02:05:10;;;;;;;15.30;8.20;;;8.40;99.90;;;;;;5052599;28;20357;-61
2022/04/15 02:07:38;;;;;;;16.05;7.38;;;8.30;99.90;;;;;;5052818;28;20041;-61
2022/04/15 02:10:07;;;;;;;12.50;7.15;;;8.30;99.90;;;;;;5051664;28;20056;-61
2022/04/15 02:12:35;;;;;;;18.20;7.60;;;8.30;99.90;;;;;;5051011;28;20049;-61
2022/04/15 02:15:03;;;;;;;18.80;7.90;;;8.20;99.90;;;;;;5051464;28;20653;-60
2022/04/15 02:17:31;;;;;;;13.02;7.50;;;8.20;99.90;;;;;;5050452;28;20060;-62
2022/04/15 02:19:59;;;;;;;13.00;7.60;;;8.10;99.90;;;;;;5052536;28;20048;-62
2022/04/15 02:22:27;;;;;;;14.35;7.65;;;8.10;99.90;;;;;;5052464;28;20056;-63
2022/04/15 02:24:55;;;;;;;11.68;7.22;;;8.00;99.90;;;;;;5052469;28;20045;-61
2022/04/15 02:27:22;;;;;;;16.80;7.55;;;8.00;99.90;;;;;;5051126;28;20055;-61
2022/04/15 02:29:50;;;;;;;14.10;6.88;;;8.00;99.90;;;;;;5051150;28;20041;-61
2022/04/15 02:32:18;;;;;;;15.70;8.23;;;8.00;99.90;;;;;;5052079;28;20381;-61
2022/04/15 02:34:46;;;;;;;13.10;7.28;;;7.90;99.90;;;;;;5052210;28;20496;-62
2022/04/15 02:37:13;;;;;;;16.35;7.80;;;7.90;99.90;;;;;;5052010;28;20066;-60
2022/04/15 02:39:41;;;;;;;14.88;6.95;;;7.80;99.90;;;;;;5052171;28;20393;-60
2022/04/15 02:42:09;;;;;;;13.15;7.43;;;7.80;99.90;;;;;;5052223;28;20049;-61
2022/04/15 02:44:38;;;;;;;16.63;7.40;;;7.70;99.90;;;;;;5050770;28;20060;-60
2022/04/15 02:47:07;;;;;;;14.45;7.55;;;7.70;99.90;;;;;;5052016;28;20037;-60
2022/04/15 02:49:35;;;;;;;13.48;7.35;;;7.60;99.90;;;;;;5052121;28;20049;-60
2022/04/15 02:52:04;;;;;;;17.13;7.75;;;7.60;99.90;;;;;;5051823;28;20048;-60
2022/04/15 02:54:31;;;;;;;18.92;8.25;;;7.60;99.90;;;;;;5050736;28;20052;-61
2022/04/15 02:56:59;;;;;;;28.15;8.38;;;7.60;99.90;;;;;;5052107;28;20070;-61
2022/04/15 02:59:27;;;;;;;16.83;8.35;;;7.50;99.90;;;;;;5051906;28;20049;-61
2022/04/15 03:01:54;;;;;;;18.45;8.63;;;7.50;99.90;;;;;;5051749;28;20049;-61
2022/04/15 03:04:23;;;;;;;19.48;9.13;;;7.50;99.90;;;;;;5051844;28;20041;-61
2022/04/15 03:06:51;;;;;;;20.70;9.35;;;7.50;99.90;;;;;;5051725;28;20064;-61
2022/04/15 03:09:18;;;;;;;18.30;8.77;;;7.40;99.90;;;;;;5051730;28;20385;-61
2022/04/15 03:11:46;;;;;;;19.70;9.30;;;7.40;99.90;;;;;;5067297;28;20531;-62
2022/04/15 03:14:14;;;;;;;15.63;8.85;;;7.40;99.90;;;;;;5071569;28;20488;-61
2022/04/15 03:16:41;;;;;;;14.13;7.70;;;7.40;99.90;;;;;;5071455;28;20404;-62
2022/04/15 03:19:09;;;;;;;17.67;7.63;;;7.40;99.90;;;;;;5071618;28;20052;-62
2022/04/15 03:21:37;;;;;;;18.58;7.85;;;7.40;99.90;;;;;;5071618;28;20044;-61
2022/04/15 03:24:06;;;;;;;16.10;8.15;;;7.30;99.90;;;;;;5069928;28;20077;-61
2022/04/15 03:26:33;;;;;;;14.43;7.57;;;7.30;99.90;;;;;;5070147;28;20522;-61
2022/04/15 03:29:01;;;;;;;14.88;7.80;;;7.30;99.90;;;;;;5069992;28;20048;-61
2022/04/15 03:31:28;;;;;;;16.95;8.25;;;7.20;99.90;;;;;;5071192;28;20049;-61
2022/04/15 03:33:56;;;;;;;15.00;7.90;;;7.20;99.90;;;;;;5071399;28;20459;-60
2022/04/15 03:36:24;;;;;;;17.55;9.18;;;7.20;99.90;;;;;;5070169;28;20055;-60
2022/04/15 03:38:52;;;;;;;22.48;9.75;;;7.20;99.90;;;;;;5069703;28;20044;-61
2022/04/15 03:41:20;;;;;;;18.83;8.95;;;7.10;99.90;;;;;;5069539;28;20044;-63
2022/04/15 03:43:50;;;;;;;15.68;8.65;;;7.10;99.90;;;;;;5071288;28;20049;-66
2022/04/15 03:46:18;;;;;;;19.58;9.25;;;7.00;99.90;;;;;;5070106;28;20045;-63
2022/04/15 03:48:45;;;;;;;18.42;10.32;;;7.00;99.90;;;;;;5070115;28;20055;-64
2022/04/15 03:51:13;;;;;;;21.33;10.00;;;7.00;99.90;;;;;;5071187;28;20048;-64
2022/04/15 03:53:41;;;;;;;20.23;9.63;;;7.00;99.90;;;;;;5071357;28;20047;-62
2022/04/15 03:56:08;;;;;;;22.13;10.35;;;7.00;99.90;;;;;;5069865;28;20049;-62
2022/04/15 03:58:36;;;;;;;19.90;11.73;;;6.90;99.90;;;;;;5069858;28;20056;-64
2022/04/15 04:01:03;;;;;;;22.60;9.88;;;6.90;99.90;;;;;;5071206;28;20484;-63
2022/04/15 04:03:31;;;;;;;32.92;11.15;;;6.90;99.90;;;;;;5069893;28;20071;-66
2022/04/15 04:05:59;;;;;;;23.35;9.20;;;6.90;99.90;;;;;;5071198;28;20045;-61
2022/04/15 04:08:26;;;;;;;18.02;9.10;;;6.80;99.90;;;;;;5071107;28;20044;-67
2022/04/15 04:10:54;;;;;;;21.38;9.43;;;6.80;99.90;;;;;;5071146;28;20051;-67
2022/04/15 04:13:22;;;;;;;23.17;9.45;;;6.80;99.90;;;;;;5071049;28;20040;-61
2022/04/15 04:15:50;;;;;;;16.17;8.65;;;6.80;99.90;;;;;;5070938;28;20052;-63
2022/04/15 04:18:20;;;;;;;17.88;8.98;;;6.70;99.90;;;;;;5071009;28;20052;-61
2022/04/15 04:20:48;;;;;;;19.88;8.88;;;6.70;99.90;;;;;;5069687;28;20048;-61
2022/04/15 04:23:16;;;;;;;15.73;7.50;;;6.60;99.90;;;;;;5071046;28;20040;-64
2022/04/15 04:25:44;;;;;;;16.35;8.00;;;6.60;99.90;;;;;;5069830;28;20491;-64
2022/04/15 04:28:12;;;;;;;16.90;8.60;;;6.60;99.90;;;;;;5069871;28;20041;-62
2022/04/15 04:30:39;;;;;;;18.73;8.55;;;6.50;99.90;;;;;;5070678;28;20052;-61
2022/04/15 04:33:07;;;;;;;14.52;8.13;;;6.50;99.90;;;;;;5069612;28;20052;-61
2022/04/15 04:35:37;;;;;;;18.42;8.43;;;6.50;99.90;;;;;;5070938;28;20051;-62
2022/04/15 04:38:06;;;;;;;19.05;9.27;;;6.50;99.90;;;;;;5070709;28;20040;-62
2022/04/15 04:40:34;;;;;;;17.83;9.50;;;6.40;99.90;;;;;;5071465;28;20049;-62
2022/04/15 04:43:04;;;;;;;18.83;9.48;;;6.40;99.90;;;;;;5074348;28;20051;-63
2022/04/15 04:45:33;;;;;;;22.13;10.43;;;6.40;99.90;;;;;;5074404;28;20060;-64
2022/04/15 04:48:02;;;;;;;15.70;9.15;;;6.40;99.90;;;;;;5062906;28;20511;-63
2022/04/15 04:50:31;;;;;;;17.25;9.70;;;6.40;99.90;;;;;;5050584;28;20504;-61
2022/04/15 04:52:58;;;;;;;17.08;9.75;;;6.40;99.90;;;;;;5050383;28;20096;-61
2022/04/15 04:55:27;;;;;;;17.42;9.98;;;6.40;99.90;;;;;;5050899;28;20045;-63
2022/04/15 04:57:54;;;;;;;23.02;10.10;;;6.30;99.90;;;;;;5057774;28;20502;-64
2022/04/15 05:00:23;;;;;;;20.17;10.38;;;6.30;99.90;;;;;;5070895;28;20041;-63
2022/04/15 05:02:51;;;;;;;16.60;9.38;;;6.30;99.90;;;;;;5057935;28;20045;-64
2022/04/15 05:05:19;;;;;;;16.13;9.00;;;6.30;99.90;;;;;;5049298;28;20048;-64
2022/04/15 05:07:48;;;;;;;14.85;8.75;;;6.30;99.90;;;;;;5055455;28;20049;-64
2022/04/15 05:10:15;;;;;;;16.50;9.63;;;6.40;99.90;;;;;;5071105;28;20048;-65
2022/04/15 05:12:45;;;;;;;18.33;9.38;;;6.40;99.90;;;;;;5068691;28;20043;-62
2022/04/15 05:15:13;;;;;;;22.02;9.27;;;6.50;99.90;;;;;;5068321;28;20052;-62
2022/04/15 05:17:41;;;;;;;18.60;9.07;;;6.50;99.90;;;;;;5066707;28;20052;-61
2022/04/15 05:20:08;;;;;;;18.58;8.88;;;6.60;99.90;;;;;;5052170;28;20045;-61
2022/04/15 05:22:36;;;;;;;17.73;9.35;;;6.60;99.90;;;;;;5052045;28;20396;-62
2022/04/15 05:25:05;;;;;;;17.08;9.50;;;6.70;99.90;;;;;;5051876;28;20495;-61
2022/04/15 05:27:33;;;;;;;18.00;10.40;;;6.80;99.90;;;;;;5055821;28;20063;-61
2022/04/15 05:30:01;;;;;;;16.50;9.10;;;6.90;99.90;;;;;;5070979;28;20048;-60
2022/04/15 05:32:28;;;;;;;20.33;9.52;;;6.90;99.90;;;;;;5069508;28;20053;-61
2022/04/15 05:34:57;;;;;;;23.00;11.65;;;7.00;99.90;;;;;;5051598;28;20122;-63
2022/04/15 05:37:25;;;;;;;16.00;9.48;;;7.10;99.90;;;;;;5067587;28;20045;-61
2022/04/15 05:39:52;;;;;;;21.25;9.77;;;7.20;99.90;;;;;;5068515;28;20484;-62
2022/04/15 05:42:20;;;;;;;18.45;9.98;;;7.30;99.90;;;;;;5066917;28;20431;-61
2022/04/15 05:44:48;;;;;;;20.98;9.07;;;7.30;99.90;;;;;;5067617;28;20064;-63
2022/04/15 05:47:15;;;;;;;21.92;9.27;;;7.40;99.90;;;;;;5070932;28;20044;-62
2022/04/15 05:49:43;;;;;;;18.33;9.85;;;7.50;99.90;;;;;;5068141;28;20051;-63
2022/04/15 05:52:11;;;;;;;16.52;9.63;;;7.50;99.90;;;;;;5071314;28;20055;-61
2022/04/15 05:54:39;;;;;;;18.83;8.73;;;7.60;99.90;;;;;;5071387;28;20045;-65
2022/04/15 05:57:06;;;;;;;18.60;8.75;;;7.70;99.90;;;;;;5071080;28;20633;-62
2022/04/15 05:59:34;;;;;;;16.67;9.63;;;7.80;99.90;;;;;;5071160;28;20056;-65
2022/04/15 06:02:02;;;;;;;19.17;9.90;;;7.80;99.90;;;;;;5070060;28;20048;-63
2022/04/15 06:04:30;;;;;;;17.52;9.43;;;7.90;99.90;;;;;;5054924;28;20045;-63
2022/04/15 06:06:57;;;;;;;16.20;9.45;;;7.90;99.90;;;;;;5048049;28;20618;-66
2022/04/15 06:09:25;;;;;;;15.82;8.93;;;8.00;99.90;;;;;;5066454;28;20044;-62
2022/04/15 06:11:55;;;;;;;17.63;9.10;;;8.00;99.90;;;;;;5069755;28;20052;-63
2022/04/15 06:14:23;;;;;;;27.73;9.80;;;8.00;99.90;;;;;;5069736;28;20048;-62
2022/04/15 06:16:52;;;;;;;18.10;9.63;;;8.10;99.90;;;;;;5068445;28;20048;-64
2022/04/15 06:19:19;;;;;;;18.17;9.27;;;8.10;99.90;;;;;;5066216;28;20052;-64
2022/04/15 06:21:52;;;;;;;17.60;9.68;;;8.20;99.90;;;;;;5067713;28;20052;-64
2022/04/15 06:24:20;;;;;;;20.67;11.48;;;8.30;99.90;;;;;;5057093;28;20060;-65
2022/04/15 06:26:50;;;;;;;19.95;11.23;;;8.30;99.90;;;;;;5050935;28;20041;-69
2022/04/15 06:29:18;;;;;;;;;;;8.40;99.90;;;;;;5068092;28;20254;-68
2022/04/15 06:31:46;;;;;;;21.15;11.65;;;8.50;99.90;;;;;;5070335;28;19921;-64
2022/04/15 06:34:14;;;;;;;24.33;12.80;;;8.50;99.90;;;;;;5059162;28;20060;-66
2022/04/15 06:36:42;;;;;;;21.33;13.45;;;8.60;99.90;;;;;;5048918;28;20044;-62
2022/04/15 06:39:10;;;;;;;27.90;15.25;;;8.60;99.90;;;;;;5049390;28;20045;-67
2022/04/15 06:41:39;;;;;;;23.45;12.73;;;8.70;99.90;;;;;;5051161;28;20048;-66
2022/04/15 06:44:06;;;;;;;22.80;12.70;;;8.80;99.90;;;;;;5067480;28;20044;-66
2022/04/15 06:46:34;;;;;;;23.67;12.90;;;8.80;99.90;;;;;;5067331;28;20044;-64
2022/04/15 06:49:02;;;;;;;27.95;11.95;;;8.90;99.90;;;;;;5065451;28;20428;-62
2022/04/15 06:51:31;;;;;;;22.25;11.48;;;8.90;99.90;;;;;;5067087;28;20049;-63
2022/04/15 06:53:58;;;;;;;21.35;12.27;;;8.90;99.90;;;;;;5066750;28;20057;-62
2022/04/15 06:56:26;;;;;;;25.02;12.43;;;8.90;99.90;;;;;;5061656;28;20051;-63
2022/04/15 06:58:53;;;;;;;25.95;12.77;;;8.80;99.90;;;;;;5043869;28;20048;-63
2022/04/15 07:01:24;;;;;;;23.77;13.55;;;8.80;99.90;;;;;;5066594;28;20056;-62
2022/04/15 07:03:52;;;;;;;27.27;15.15;;;8.80;99.90;;;;;;5057309;28;20068;-63
2022/04/15 07:06:19;;;;;;;29.90;15.43;;;8.80;99.90;;;;;;5046575;28;20048;-63
2022/04/15 07:08:47;;;;;;;28.83;16.05;;;8.70;99.90;;;;;;5048436;28;20061;-61
2022/04/15 07:11:15;;;;;;;33.47;16.52;;;8.70;99.90;;;;;;5046795;28;20041;-62
2022/04/15 07:13:42;;;;;;;30.00;16.00;;;8.70;99.90;;;;;;5046633;28;20056;-62
2022/04/15 07:16:10;;;;;;;31.17;16.55;;;8.70;99.90;;;;;;5061914;28;20048;-65
2022/04/15 07:18:39;;;;;;;36.10;18.90;;;8.80;99.90;;;;;;5062182;28;20589;-62
2022/04/15 07:21:11;;;;;;;31.70;18.60;;;8.80;99.90;;;;;;5046582;28;20961;-62
2022/04/15 07:23:39;;;;;;;37.88;19.48;;;8.90;99.90;;;;;;5045450;28;20048;-62
2022/04/15 07:26:06;;;;;;;31.40;19.60;;;9.00;99.90;;;;;;5052330;28;20044;-61
2022/04/15 07:28:34;;;;;;;33.50;18.65;;;9.20;99.90;;;;;;5060341;28;20055;-62
2022/04/15 07:31:02;;;;;;;33.45;18.90;;;9.40;99.90;;;;;;5046087;28;20480;-61
2022/04/15 07:33:29;;;;;;;30.20;17.48;;;9.70;99.90;;;;;;5044877;28;20048;-62
2022/04/15 07:35:57;;;;;;;35.70;15.82;;;9.90;99.90;;;;;;5046145;28;20128;-62
2022/04/15 07:38:31;;;;;;;21.70;13.55;;;10.20;99.90;;;;;;5036396;28;20057;-61
2022/04/15 07:40:58;;;;;;;25.95;13.57;;;10.50;99.90;;;;;;5028133;28;20386;-62
2022/04/15 07:43:26;;;;;;;21.27;11.75;;;10.60;99.90;;;;;;5045543;28;20045;-62
2022/04/15 07:45:53;;;;;;;22.55;12.10;;;10.80;99.90;;;;;;5045698;28;20403;-62
2022/04/15 07:48:21;;;;;;;24.52;11.57;;;10.90;99.90;;;;;;5056235;28;20045;-63
2022/04/15 07:50:50;;;;;;;17.83;10.88;;;11.00;99.90;;;;;;5059414;28;20056;-66
2022/04/15 07:53:18;;;;;;;21.50;12.43;;;11.10;99.90;;;;;;5060572;28;20044;-63
2022/04/15 07:55:46;;;;;;;24.75;12.20;;;11.10;99.90;;;;;;5055064;28;20080;-64
2022/04/15 07:58:13;;;;;;;17.90;11.40;;;11.20;99.90;;;;;;5066450;28;20041;-62
2022/04/15 08:00:42;;;;;;;24.80;12.15;;;11.20;99.90;;;;;;5053471;28;20052;-65
2022/04/15 08:03:11;;;;;;;19.83;11.83;;;11.20;99.90;;;;;;5046165;28;20037;-63
2022/04/15 08:05:39;;;;;;;18.88;11.93;;;11.30;99.90;;;;;;5060456;28;20068;-61
2022/04/15 08:08:07;;;;;;;19.98;11.15;;;11.30;99.90;;;;;;5065639;28;20032;-61
2022/04/15 08:10:36;;;;;;;25.00;12.87;;;11.40;99.90;;;;;;5069362;28;20053;-61
2022/04/15 08:13:04;;;;;;;25.83;13.07;;;11.40;99.90;;;;;;5054802;28;20041;-62
2022/04/15 08:15:31;;;;;;;20.77;11.18;;;11.50;99.90;;;;;;5032205;28;20057;-64
2022/04/15 08:18:00;;;;;;;20.95;10.52;;;11.60;99.90;;;;;;5058781;28;20049;-62
2022/04/15 08:20:28;;;;;;;18.52;10.65;;;11.60;99.90;;;;;;5067994;28;20057;-62
2022/04/15 08:22:56;;;;;;;20.92;11.13;;;11.70;99.90;;;;;;5073252;28;20044;-61
2022/04/15 08:25:24;;;;;;;21.63;11.43;;;11.80;99.90;;;;;;5070746;28;20389;-61
2022/04/15 08:27:52;;;;;;;19.10;10.10;;;11.90;99.90;;;;;;5058751;28;20045;-62
2022/04/15 08:30:19;;;;;;;17.00;10.18;;;12.00;99.90;;;;;;5072768;28;20060;-61
2022/04/15 08:32:51;;;;;;;20.02;10.30;;;12.10;99.90;;;;;;5073251;28;20044;-64
2022/04/15 08:35:20;;;;;;;18.08;11.05;;;12.20;99.90;;;;;;5062587;28;20041;-63
2022/04/15 08:37:48;;;;;;;17.77;10.57;;;12.30;99.90;;;;;;5063910;28;20515;-62
2022/04/15 08:40:16;;;;;;;19.60;10.40;;;12.40;99.90;;;;;;5072872;28;20052;-61
2022/04/15 08:42:44;;;;;;;17.83;10.88;;;12.50;99.90;;;;;;5072941;28;20045;-64
2022/04/15 08:45:15;;;;;;;16.58;9.88;;;12.60;99.90;;;;;;5072722;28;20055;-61
2022/04/15 08:47:43;;;;;;;16.95;9.57;;;12.70;99.90;;;;;;5072564;28;20539;-63
2022/04/15 08:50:12;;;;;;;17.45;9.52;;;12.90;99.90;;;;;;5067015;28;20412;-64
2022/04/15 08:52:40;;;;;;;21.17;10.10;;;13.00;99.90;;;;;;5054636;28;20049;-64
2022/04/15 08:55:09;;;;;;;14.32;8.80;;;13.10;99.90;;;;;;5052466;28;20053;-65
2022/04/15 08:57:37;;;;;;;17.77;10.05;;;13.20;99.90;;;;;;5034827;28;20067;-64
2022/04/15 09:00:05;;;;;;;16.75;9.27;;;13.30;99.90;;;;;;5051147;28;20079;-65
2022/04/15 09:02:36;;;;;;;15.63;9.35;;;13.50;99.90;;;;;;5051277;28;20050;-66
2022/04/15 09:05:10;;;;;;;20.95;9.70;;;13.60;99.90;;;;;;5052051;28;20041;-63
2022/04/15 09:07:37;;;;;;;15.60;8.93;;;13.60;99.90;;;;;;5056945;28;20052;-65
2022/04/15 09:10:07;;;;;;;18.65;8.75;;;13.80;99.90;;;;;;5072057;28;20047;-61
2022/04/15 09:12:36;;;;;;;16.55;8.45;;;13.80;99.90;;;;;;5071952;28;20040;-62
2022/04/15 09:15:06;;;;;;;17.50;9.23;;;13.90;99.90;;;;;;5072111;28;20056;-61
2022/04/15 09:17:47;;;;;;;13.15;7.97;;;14.00;99.90;;;;;;5052093;28;20607;-67
2022/04/15 09:20:15;;;;;;;12.68;7.78;;;14.10;99.90;;;;;;5051633;28;20503;-65
2022/04/15 09:22:43;;;;;;;14.20;7.55;;;14.10;99.90;;;;;;5052056;28;20048;-65
2022/04/15 09:25:11;;;;;;;13.48;8.25;;;14.10;99.90;;;;;;5051905;28;20056;-64
2022/04/15 09:27:39;;;;;;;11.70;7.32;;;14.20;99.90;;;;;;5055514;28;20045;-60
2022/04/15 09:30:07;;;;;;;19.52;8.27;;;14.20;99.90;;;;;;5071763;28;20052;-60
2022/04/15 09:32:39;;;;;;;17.92;7.70;;;14.10;99.90;;;;;;5063647;28;20072;-61
2022/04/15 09:35:08;;;;;;;14.65;7.18;;;14.20;99.90;;;;;;5068625;28;20037;-60
2022/04/15 09:37:40;;;;;;;12.73;6.65;;;14.20;99.90;;;;;;5071527;28;20044;-61
2022/04/15 09:40:17;;;;;;;9.95;5.72;;;14.30;99.90;;;;;;5071671;28;20403;-60
2022/04/15 09:42:51;;;;;;;10.63;5.32;;;14.40;99.90;;;;;;5071694;28;20051;-63
2022/04/15 09:45:30;;;;;;;8.65;5.45;;;14.50;99.90;;;;;;5070486;28;20252;-62
2022/04/15 09:48:00;;;;;;;10.37;4.90;;;14.70;99.90;;;;;;5071478;28;20048;-60
2022/04/15 09:50:34;;;;;;;11.88;4.63;;;14.90;99.90;;;;;;5065185;28;20298;-61
2022/04/15 09:53:16;;;;;;;13.20;4.93;;;15.00;99.90;;;;;;5051372;28;20052;-63
2022/04/15 09:55:46;;;;;;;8.95;5.40;;;15.20;99.90;;;;;;5061263;28;20077;-60
2022/04/15 09:58:16;;;;;;;9.35;4.80;;;15.20;99.90;;;;;;5071597;28;20056;-60
2022/04/15 10:00:48;;;;;;;8.77;4.38;;;15.30;99.90;;;;;;5070541;28;20048;-61
2022/04/15 10:03:21;;;;;;;7.95;4.70;;;15.30;99.90;;;;;;5068303;28;20396;-60
2022/04/15 10:05:50;;;;;;;10.73;4.50;;;15.30;99.90;;;;;;5066334;28;20059;-61
2022/04/15 10:08:21;;;;;;;11.02;4.97;;;15.30;99.90;;;;;;5069765;28;20044;-62
2022/04/15 10:10:50;;;;;;;8.55;4.35;;;15.40;99.90;;;;;;5058429;28;20069;-61
2022/04/15 10:13:20;;;;;;;7.07;4.05;;;15.40;99.90;;;;;;5054802;28;20047;-60
2022/04/15 10:15:49;;;;;;;;;;;15.50;99.90;;;;;;5054411;28;20401;-60
2022/04/15 10:18:20;;;;;;;8.60;4.18;;;15.50;99.90;;;;;;5059468;28;19927;-61
2022/04/15 10:20:48;;;;;;;9.98;4.65;;;15.60;99.90;;;;;;5063997;28;20067;-61
2022/04/15 10:23:16;;;;;;;11.80;4.43;;;15.60;99.90;;;;;;5050442;28;20045;-61
2022/04/15 10:25:46;;;;;;;8.60;3.85;;;15.70;99.90;;;;;;5065242;28;20059;-60
2022/04/15 10:28:17;;;;;;;;;;;15.80;99.90;;;;;;5067246;28;20060;-60
2022/04/15 10:30:52;;;;;;;10.13;4.10;;;15.80;99.90;;;;;;5059297;28;19920;-60
2022/04/15 10:33:33;;;;;;;9.73;4.00;;;16.00;99.90;;;;;;5056948;28;20036;-61
2022/04/15 10:36:14;;;;;;;7.75;4.60;;;16.10;99.90;;;;;;5052472;28;20045;-61
2022/04/15 10:39:03;;;;;;;8.93;4.20;;;16.30;99.90;;;;;;5057841;28;20817;-60
2022/04/15 10:41:44;;;;;;;9.70;4.15;;;16.40;99.90;;;;;;5051118;28;20071;-60
2022/04/15 10:44:14;;;;;;;8.68;4.40;;;16.60;99.90;;;;;;5055779;28;20040;-61
2022/04/15 10:46:42;;;;;;;8.23;4.25;;;16.60;99.90;;;;;;5060826;28;20403;-60
2022/04/15 10:49:23;;;;;;;6.90;4.20;;;16.70;99.90;;;;;;5065428;28;20044;-61
2022/04/15 10:51:52;;;;;;;11.30;3.80;;;16.90;99.90;;;;;;5056768;28;20044;-61
2022/04/15 10:54:42;;;;;;;8.13;4.07;;;17.10;99.90;;;;;;5056479;28;20044;-61
2022/04/15 10:57:15;;;;;;;7.05;3.40;;;17.30;99.90;;;;;;5059840;28;20048;-60
2022/04/15 11:02:43;;;;;;;9.23;3.17;;;17.50;99.90;;;;;;5062681;28;20045;-60
2022/04/15 11:05:43;;;;;;;5.43;2.80;;;17.60;99.90;;;;;;5063821;28;20502;-60
2022/04/15 11:08:25;;;;;;;4.35;2.47;;;17.70;99.90;;;;;;5065309;28;20048;-60
2022/04/15 11:10:57;;;;;;;5.13;2.53;;;17.80;99.90;;;;;;5051754;28;20060;-61
2022/04/15 11:13:40;;;;;;;5.03;2.03;;;17.80;99.90;;;;;;5058376;28;20036;-61
2022/04/15 11:16:10;;;;;;;7.07;2.38;;;17.90;99.90;;;;;;5053275;28;20052;-61
2022/04/15 11:18:56;;;;;;;5.75;2.20;;;17.80;99.90;;;;;;5055814;28;20045;-60
2022/04/15 11:21:32;;;;;;;10.35;2.90;;;17.80;99.90;;;;;;5063732;28;20044;-60
2022/04/15 11:24:05;;;;;;;7.28;2.10;;;17.90;99.90;;;;;;5049818;28;20056;-61
2022/04/15 11:26:35;;;;;;;5.97;2.33;;;18.00;99.90;;;;;;5048683;28;20041;-60
2022/04/15 11:29:05;;;;;;;6.32;2.47;;;18.10;99.90;;;;;;5064685;28;20044;-60
2022/04/15 11:31:38;;;;;;;7.47;2.53;;;18.20;99.90;;;;;;5069739;28;20131;-61
2022/04/15 11:34:07;;;;;;;5.35;2.03;;;18.40;99.90;;;;;;5058080;28;20049;-62
2022/04/15 11:36:37;;;;;;;7.22;2.15;;;18.60;99.90;;;;;;5058002;28;20044;-64
2022/04/15 11:39:07;;;;;;;6.38;1.90;;;18.70;99.90;;;;;;5061642;28;20044;-62
2022/04/15 11:41:35;;;;;;;2.28;1.73;;;18.60;99.90;;;;;;5068276;28;20052;-62
2022/04/15 11:44:05;;;;;;;6.65;2.13;;;18.50;99.90;;;;;;5068240;28;20047;-61
2022/04/15 11:46:36;;;;;;;5.28;2.00;;;18.50;99.90;;;;;;5068115;28;20377;-67
2022/04/15 11:49:12;;;;;;;2.67;1.65;;;18.60;99.90;;;;;;5068896;28;20079;-67
2022/04/15 11:51:43;;;;;;;7.13;2.67;;;18.80;99.90;;;;;;5065236;28;20045;-65
2022/04/15 11:54:11;;;;;;;4.40;1.77;;;18.90;99.90;;;;;;5072662;28;20036;-63
2022/04/15 11:56:40;;;;;;;6.18;1.90;;;18.90;99.90;;;;;;5071638;28;20051;-62
2022/04/15 11:59:10;;;;;;;4.28;1.67;;;18.90;99.90;;;;;;5073448;28;20048;-66
2022/04/15 12:01:38;;;;;;;4.03;1.85;;;18.80;99.90;;;;;;5073615;28;20484;-65
2022/04/15 12:04:06;;;;;;;5.57;1.73;;;18.70;99.90;;;;;;5073591;28;20056;-61
2022/04/15 12:06:40;;;;;;;5.28;1.80;;;18.70;99.90;;;;;;5057475;28;20041;-61
2022/04/15 12:09:16;;;;;;;5.75;2.20;;;18.60;99.90;;;;;;5067604;28;20052;-61
2022/04/15 12:12:05;;;;;;;5.55;1.60;;;18.70;99.90;;;;;;5060538;28;20045;-61
2022/04/15 12:14:39;;;;;;;3.63;1.50;;;18.80;99.90;;;;;;5071433;28;20048;-61
2022/04/15 12:17:14;;;;;;;6.22;1.50;;;18.90;99.90;;;;;;5070869;28;20060;-61
2022/04/15 12:19:42;;;;;;;3.78;1.95;;;19.10;99.90;;;;;;5073012;28;20046;-61
2022/04/15 12:22:10;;;;;;;6.47;2.05;;;19.10;99.90;;;;;;5068007;28;20056;-62
2022/04/15 12:24:38;;;;;;;2.13;1.38;;;19.00;99.90;;;;;;5053177;28;20045;-61
2022/04/15 12:27:06;;;;;;;6.47;1.90;;;18.90;99.90;;;;;;5054005;28;20499;-62
2022/04/15 12:29:51;;;;;;;6.95;1.80;;;18.70;99.90;;;;;;5071532;28;20052;-62
2022/04/15 12:32:24;;;;;;;7.30;2.20;;;18.60;99.90;;;;;;5072770;28;20053;-62
2022/04/15 12:34:54;;;;;;;4.85;1.80;;;18.50;99.90;;;;;;5072533;28;20055;-63
2022/04/15 12:37:47;;;;;;;6.50;3.03;;;18.40;99.90;;;;;;5059632;28;20076;-61
2022/04/15 12:40:15;;;;;;;5.95;2.05;;;18.30;99.90;;;;;;5071411;28;20057;-62
2022/04/15 12:42:45;;;;;;;5.25;2.63;;;18.30;99.90;;;;;;5052709;28;20041;-61
2022/04/15 12:45:15;;;;;;;;;;;18.30;99.90;;;;;;5052971;28;20517;-61
2022/04/15 12:47:47;;;;;;;6.03;2.25;;;18.30;99.90;;;;;;5056012;28;19924;-62
2022/04/15 12:50:25;;;;;;;3.40;2.10;;;18.40;99.90;;;;;;5072482;28;20047;-61
2022/04/15 12:52:54;;;;;;;5.53;2.30;;;18.50;99.90;;;;;;5055324;28;20053;-61
2022/04/15 12:55:25;;;;;;;;;;;18.70;99.90;;;;;;5052816;28;20041;-61
2022/04/15 12:57:52;;;;;;;3.85;2.05;;;19.00;99.90;;;;;;5053049;28;19920;-62